Weather at Old Bridge Airport

Public forecast

Using degrees Fahrenheit for public forecast. Weather courtesy of forecast.io.

Closest aviation weather report (METAR) to Old Bridge Airport

Closest report is Monmouth Executive Airport, 13.3 nm (24.6 km) SE. Retrieved 2021/01/19 16:56 UTC (10 minutes ago):

KBLM 191656Z AUTO 27014G26KT 10SM BKN043 OVC050 05/M05 A3008 RMK AO2 PK WND 25026/1652 SLP185 T00501050

Closest aviation forecast (TAF) to Old Bridge Airport

Closest forecast is Trenton Mercer Airport, 21.6 nm (40.0 km) W. Retrieved 2021/01/19 12:22 UTC (5 hours ago):

TAF KTTN 191120Z 1912/2012 26008KT P6SM SCT050 FM191600 27014G22KT P6SM SCT050 FM192100 27012KT P6SM SCT150 FM200000 26006KT P6SM FEW250 FM200900 26005KT 6SM BR BKN040